sensor_id;sensor_type;location;lat;lon;timestamp;temperature;humidity
49184;DHT22;35021;49.214;12.270;2022-11-13T00:01:17;21.30;36.70
49184;DHT22;35021;49.214;12.270;2022-11-13T00:03:44;21.40;36.70
49184;DHT22;35021;49.214;12.270;2022-11-13T00:06:12;21.30;36.60
49184;DHT22;35021;49.214;12.270;2022-11-13T00:08:40;21.40;36.70
49184;DHT22;35021;49.214;12.270;2022-11-13T00:11:11;21.30;36.50
49184;DHT22;35021;49.214;12.270;2022-11-13T00:13:38;21.30;36.50
49184;DHT22;35021;49.214;12.270;2022-11-13T00:16:08;21.30;36.50
49184;DHT22;35021;49.214;12.270;2022-11-13T00:18:36;21.30;36.50
49184;DHT22;35021;49.214;12.270;2022-11-13T00:21:08;21.30;36.50
49184;DHT22;35021;49.214;12.270;2022-11-13T00:23:36;21.30;36.60
49184;DHT22;35021;49.214;12.270;2022-11-13T00:26:17;21.30;36.60
49184;DHT22;35021;49.214;12.270;2022-11-13T00:28:45;21.30;36.70
49184;DHT22;35021;49.214;12.270;2022-11-13T00:31:14;21.30;36.70
49184;DHT22;35021;49.214;12.270;2022-11-13T00:33:41;21.30;36.70
49184;DHT22;35021;49.214;12.270;2022-11-13T00:36:28;21.30;36.70
49184;DHT22;35021;49.214;12.270;2022-11-13T00:38:55;21.30;36.70
49184;DHT22;35021;49.214;12.270;2022-11-13T00:41:23;21.30;36.60
49184;DHT22;35021;49.214;12.270;2022-11-13T00:43:50;21.30;36.60
49184;DHT22;35021;49.214;12.270;2022-11-13T00:46:17;21.30;36.60
49184;DHT22;35021;49.214;12.270;2022-11-13T00:48:44;21.30;36.50
49184;DHT22;35021;49.214;12.270;2022-11-13T00:51:11;21.30;36.50
49184;DHT22;35021;49.214;12.270;2022-11-13T00:53:38;21.30;36.40
49184;DHT22;35021;49.214;12.270;2022-11-13T00:56:05;21.30;36.40
49184;DHT22;35021;49.214;12.270;2022-11-13T00:58:32;21.20;36.20
49184;DHT22;35021;49.214;12.270;2022-11-13T01:01:05;21.20;36.20
49184;DHT22;35021;49.214;12.270;2022-11-13T01:03:32;21.20;36.10
49184;DHT22;35021;49.214;12.270;2022-11-13T01:06:00;21.20;36.10
49184;DHT22;35021;49.214;12.270;2022-11-13T01:08:27;21.20;36.10
49184;DHT22;35021;49.214;12.270;2022-11-13T01:10:54;21.20;36.10
49184;DHT22;35021;49.214;12.270;2022-11-13T01:13:21;21.20;36.10
49184;DHT22;35021;49.214;12.270;2022-11-13T01:15:48;21.20;36.10
49184;DHT22;35021;49.214;12.270;2022-11-13T01:18:15;21.20;36.10
49184;DHT22;35021;49.214;12.270;2022-11-13T01:20:42;21.20;36.10
49184;DHT22;35021;49.214;12.270;2022-11-13T01:23:09;21.20;36.10
49184;DHT22;35021;49.214;12.270;2022-11-13T01:25:35;21.10;36.10
49184;DHT22;35021;49.214;12.270;2022-11-13T01:28:02;21.10;36.10
49184;DHT22;35021;49.214;12.270;2022-11-13T01:30:29;21.10;36.20
49184;DHT22;35021;49.214;12.270;2022-11-13T01:32:56;21.10;36.20
49184;DHT22;35021;49.214;12.270;2022-11-13T01:35:23;21.10;36.20
49184;DHT22;35021;49.214;12.270;2022-11-13T01:37:50;21.00;36.10
49184;DHT22;35021;49.214;12.270;2022-11-13T01:40:17;21.00;36.10
49184;DHT22;35021;49.214;12.270;2022-11-13T01:42:44;21.00;36.10
49184;DHT22;35021;49.214;12.270;2022-11-13T01:48:15;21.00;36.10
49184;DHT22;35021;49.214;12.270;2022-11-13T01:50:42;21.00;36.10
49184;DHT22;35021;49.214;12.270;2022-11-13T01:53:09;21.00;36.10
49184;DHT22;35021;49.214;12.270;2022-11-13T01:55:36;21.00;36.10
49184;DHT22;35021;49.214;12.270;2022-11-13T01:58:05;21.00;36.00
49184;DHT22;35021;49.214;12.270;2022-11-13T02:00:33;21.00;36.00
49184;DHT22;35021;49.214;12.270;2022-11-13T02:03:00;21.00;35.90
49184;DHT22;35021;49.214;12.270;2022-11-13T02:05:27;21.00;35.90
49184;DHT22;35021;49.214;12.270;2022-11-13T02:07:54;21.00;35.80
49184;DHT22;35021;49.214;12.270;2022-11-13T02:10:21;21.00;35.80
49184;DHT22;35021;49.214;12.270;2022-11-13T02:12:49;21.00;35.70
49184;DHT22;35021;49.214;12.270;2022-11-13T02:15:19;21.00;35.60
49184;DHT22;35021;49.214;12.270;2022-11-13T02:17:57;21.00;35.60
49184;DHT22;35021;49.214;12.270;2022-11-13T02:20:34;21.00;35.60
49184;DHT22;35021;49.214;12.270;2022-11-13T02:25:55;21.00;35.50
49184;DHT22;35021;49.214;12.270;2022-11-13T02:28:21;21.00;35.40
49184;DHT22;35021;49.214;12.270;2022-11-13T02:30:50;21.00;35.40
49184;DHT22;35021;49.214;12.270;2022-11-13T02:33:26;21.00;35.30
49184;DHT22;35021;49.214;12.270;2022-11-13T02:35:53;21.00;35.30
49184;DHT22;35021;49.214;12.270;2022-11-13T02:38:20;21.00;35.30
49184;DHT22;35021;49.214;12.270;2022-11-13T02:40:47;21.00;35.40
49184;DHT22;35021;49.214;12.270;2022-11-13T02:43:14;21.00;35.30
49184;DHT22;35021;49.214;12.270;2022-11-13T02:45:41;21.00;35.40
49184;DHT22;35021;49.214;12.270;2022-11-13T02:48:08;21.00;35.30
49184;DHT22;35021;49.214;12.270;2022-11-13T02:50:35;21.00;35.30
49184;DHT22;35021;49.214;12.270;2022-11-13T02:53:03;21.00;35.30
49184;DHT22;35021;49.214;12.270;2022-11-13T02:55:30;21.00;35.20
49184;DHT22;35021;49.214;12.270;2022-11-13T02:57:57;21.00;35.20
49184;DHT22;35021;49.214;12.270;2022-11-13T03:00:24;21.00;35.10
49184;DHT22;35021;49.214;12.270;2022-11-13T03:02:51;21.00;35.10
49184;DHT22;35021;49.214;12.270;2022-11-13T03:05:18;20.90;35.00
49184;DHT22;35021;49.214;12.270;2022-11-13T03:07:45;20.90;34.80
49184;DHT22;35021;49.214;12.270;2022-11-13T03:10:12;20.90;34.80
49184;DHT22;35021;49.214;12.270;2022-11-13T03:12:39;20.90;34.60
49184;DHT22;35021;49.214;12.270;2022-11-13T03:15:07;20.90;34.50
49184;DHT22;35021;49.214;12.270;2022-11-13T03:17:35;20.90;34.50
49184;DHT22;35021;49.214;12.270;2022-11-13T03:20:03;20.90;35.20
49184;DHT22;35021;49.214;12.270;2022-11-13T03:22:30;20.90;34.50
49184;DHT22;35021;49.214;12.270;2022-11-13T03:24:57;20.90;34.50
49184;DHT22;35021;49.214;12.270;2022-11-13T03:27:24;20.90;34.50
49184;DHT22;35021;49.214;12.270;2022-11-13T03:29:50;20.90;34.60
49184;DHT22;35021;49.214;12.270;2022-11-13T03:32:17;20.90;34.70
49184;DHT22;35021;49.214;12.270;2022-11-13T03:34:45;20.90;34.70
49184;DHT22;35021;49.214;12.270;2022-11-13T03:37:11;20.90;35.50
49184;DHT22;35021;49.214;12.270;2022-11-13T03:39:38;20.90;34.80
49184;DHT22;35021;49.214;12.270;2022-11-13T03:42:05;20.90;34.80
49184;DHT22;35021;49.214;12.270;2022-11-13T03:44:32;20.90;34.80
49184;DHT22;35021;49.214;12.270;2022-11-13T03:46:59;20.90;34.80
49184;DHT22;35021;49.214;12.270;2022-11-13T03:49:25;20.90;34.80
49184;DHT22;35021;49.214;12.270;2022-11-13T03:51:52;20.90;34.90
49184;DHT22;35021;49.214;12.270;2022-11-13T03:54:19;20.90;34.90
49184;DHT22;35021;49.214;12.270;2022-11-13T03:56:46;20.90;34.90
49184;DHT22;35021;49.214;12.270;2022-11-13T03:59:13;20.90;34.90
49184;DHT22;35021;49.214;12.270;2022-11-13T04:01:40;20.90;34.90
49184;DHT22;35021;49.214;12.270;2022-11-13T04:04:07;20.90;35.00
49184;DHT22;35021;49.214;12.270;2022-11-13T04:06:33;20.90;35.00
49184;DHT22;35021;49.214;12.270;2022-11-13T04:09:00;20.90;35.00
49184;DHT22;35021;49.214;12.270;2022-11-13T04:11:27;20.90;35.00
49184;DHT22;35021;49.214;12.270;2022-11-13T04:13:54;20.80;34.90
49184;DHT22;35021;49.214;12.270;2022-11-13T04:16:21;20.80;35.00
49184;DHT22;35021;49.214;12.270;2022-11-13T04:18:48;20.80;35.10
49184;DHT22;35021;49.214;12.270;2022-11-13T04:21:15;20.80;35.10
49184;DHT22;35021;49.214;12.270;2022-11-13T04:23:41;20.80;35.20
49184;DHT22;35021;49.214;12.270;2022-11-13T04:26:08;20.80;35.20
49184;DHT22;35021;49.214;12.270;2022-11-13T04:28:35;20.80;35.00
49184;DHT22;35021;49.214;12.270;2022-11-13T04:31:02;20.80;35.00
49184;DHT22;35021;49.214;12.270;2022-11-13T04:33:29;20.90;34.90
49184;DHT22;35021;49.214;12.270;2022-11-13T04:35:56;21.00;34.80
49184;DHT22;35021;49.214;12.270;2022-11-13T04:38:22;21.00;34.70
49184;DHT22;35021;49.214;12.270;2022-11-13T04:40:50;21.10;34.60
49184;DHT22;35021;49.214;12.270;2022-11-13T04:43:37;21.20;34.50
49184;DHT22;35021;49.214;12.270;2022-11-13T04:46:03;21.20;34.40
49184;DHT22;35021;49.214;12.270;2022-11-13T04:48:30;21.30;34.40
49184;DHT22;35021;49.214;12.270;2022-11-13T04:50:58;21.40;34.30
49184;DHT22;35021;49.214;12.270;2022-11-13T04:53:24;21.40;34.30
49184;DHT22;35021;49.214;12.270;2022-11-13T04:55:52;21.40;34.10
49184;DHT22;35021;49.214;12.270;2022-11-13T04:58:19;21.40;34.00
49184;DHT22;35021;49.214;12.270;2022-11-13T05:00:46;21.40;34.00
49184;DHT22;35021;49.214;12.270;2022-11-13T05:03:12;21.40;34.00
49184;DHT22;35021;49.214;12.270;2022-11-13T05:05:39;21.40;34.70
49184;DHT22;35021;49.214;12.270;2022-11-13T05:08:06;21.40;34.00
49184;DHT22;35021;49.214;12.270;2022-11-13T05:10:33;21.40;34.00
49184;DHT22;35021;49.214;12.270;2022-11-13T05:13:00;21.40;33.90
49184;DHT22;35021;49.214;12.270;2022-11-13T05:15:26;21.40;34.00
49184;DHT22;35021;49.214;12.270;2022-11-13T05:17:53;21.40;33.80
49184;DHT22;35021;49.214;12.270;2022-11-13T05:20:20;21.40;33.60
49184;DHT22;35021;49.214;12.270;2022-11-13T05:22:47;21.50;33.60
49184;DHT22;35021;49.214;12.270;2022-11-13T05:25:14;21.50;33.50
49184;DHT22;35021;49.214;12.270;2022-11-13T05:27:41;21.60;33.50
49184;DHT22;35021;49.214;12.270;2022-11-13T05:30:08;21.60;33.40
49184;DHT22;35021;49.214;12.270;2022-11-13T05:32:35;21.60;33.30
49184;DHT22;35021;49.214;12.270;2022-11-13T05:35:03;21.70;33.40
49184;DHT22;35021;49.214;12.270;2022-11-13T05:37:30;21.70;33.40
49184;DHT22;35021;49.214;12.270;2022-11-13T05:39:56;21.70;33.30
49184;DHT22;35021;49.214;12.270;2022-11-13T05:42:23;21.70;33.40
49184;DHT22;35021;49.214;12.270;2022-11-13T05:44:50;21.60;33.40
49184;DHT22;35021;49.214;12.270;2022-11-13T05:47:17;21.60;33.50
49184;DHT22;35021;49.214;12.270;2022-11-13T05:49:44;21.60;33.40
49184;DHT22;35021;49.214;12.270;2022-11-13T05:52:10;21.50;33.40
49184;DHT22;35021;49.214;12.270;2022-11-13T05:54:37;21.50;33.30
49184;DHT22;35021;49.214;12.270;2022-11-13T05:57:04;21.50;33.40
49184;DHT22;35021;49.214;12.270;2022-11-13T05:59:31;21.50;33.40
49184;DHT22;35021;49.214;12.270;2022-11-13T06:01:57;21.50;33.30
49184;DHT22;35021;49.214;12.270;2022-11-13T06:04:24;21.60;33.50
49184;DHT22;35021;49.214;12.270;2022-11-13T06:06:51;21.60;33.40
49184;DHT22;35021;49.214;12.270;2022-11-13T06:09:18;21.60;33.40
49184;DHT22;35021;49.214;12.270;2022-11-13T06:11:45;21.70;33.30
49184;DHT22;35021;49.214;12.270;2022-11-13T06:14:12;21.70;33.10
49184;DHT22;35021;49.214;12.270;2022-11-13T06:16:39;21.70;33.00
49184;DHT22;35021;49.214;12.270;2022-11-13T06:19:07;21.70;32.90
49184;DHT22;35021;49.214;12.270;2022-11-13T06:21:37;21.60;32.90
49184;DHT22;35021;49.214;12.270;2022-11-13T06:24:05;21.60;33.00
49184;DHT22;35021;49.214;12.270;2022-11-13T06:26:34;21.50;32.90
49184;DHT22;35021;49.214;12.270;2022-11-13T06:29:02;21.40;33.10
49184;DHT22;35021;49.214;12.270;2022-11-13T06:31:31;21.40;33.20
49184;DHT22;35021;49.214;12.270;2022-11-13T06:33:59;21.30;33.20
49184;DHT22;35021;49.214;12.270;2022-11-13T06:36:31;21.30;33.30
49184;DHT22;35021;49.214;12.270;2022-11-13T06:38:59;21.30;33.30
49184;DHT22;35021;49.214;12.270;2022-11-13T06:41:28;21.30;33.10
49184;DHT22;35021;49.214;12.270;2022-11-13T06:43:56;21.40;33.10
49184;DHT22;35021;49.214;12.270;2022-11-13T06:46:29;21.40;33.10
49184;DHT22;35021;49.214;12.270;2022-11-13T06:48:56;21.40;33.00
49184;DHT22;35021;49.214;12.270;2022-11-13T06:51:25;21.40;32.90
49184;DHT22;35021;49.214;12.270;2022-11-13T06:53:53;21.50;32.80
49184;DHT22;35021;49.214;12.270;2022-11-13T06:56:20;21.50;32.70
49184;DHT22;35021;49.214;12.270;2022-11-13T06:58:48;21.50;32.70
49184;DHT22;35021;49.214;12.270;2022-11-13T07:01:18;21.50;32.70
49184;DHT22;35021;49.214;12.270;2022-11-13T07:03:46;21.50;32.70
49184;DHT22;35021;49.214;12.270;2022-11-13T07:06:18;21.50;32.70
49184;DHT22;35021;49.214;12.270;2022-11-13T07:08:46;21.50;32.80
49184;DHT22;35021;49.214;12.270;2022-11-13T07:11:17;21.40;32.80
49184;DHT22;35021;49.214;12.270;2022-11-13T07:13:44;21.30;32.90
49184;DHT22;35021;49.214;12.270;2022-11-13T07:16:14;21.30;33.10
49184;DHT22;35021;49.214;12.270;2022-11-13T07:18:53;21.20;33.10
49184;DHT22;35021;49.214;12.270;2022-11-13T07:21:21;21.30;33.10
49184;DHT22;35021;49.214;12.270;2022-11-13T07:23:48;21.20;33.30
49184;DHT22;35021;49.214;12.270;2022-11-13T07:26:16;21.30;33.10
49184;DHT22;35021;49.214;12.270;2022-11-13T07:28:43;21.30;33.10
49184;DHT22;35021;49.214;12.270;2022-11-13T07:31:12;21.30;33.10
49184;DHT22;35021;49.214;12.270;2022-11-13T07:33:39;21.40;33.20
49184;DHT22;35021;49.214;12.270;2022-11-13T07:36:06;21.40;33.20
49184;DHT22;35021;49.214;12.270;2022-11-13T07:38:34;21.40;33.10
49184;DHT22;35021;49.214;12.270;2022-11-13T07:41:01;21.50;33.20
49184;DHT22;35021;49.214;12.270;2022-11-13T07:43:28;21.50;33.10
49184;DHT22;35021;49.214;12.270;2022-11-13T07:45:57;21.50;33.10
49184;DHT22;35021;49.214;12.270;2022-11-13T07:48:25;21.50;33.10
49184;DHT22;35021;49.214;12.270;2022-11-13T07:50:54;21.40;33.10
49184;DHT22;35021;49.214;12.270;2022-11-13T07:53:21;21.40;33.30
49184;DHT22;35021;49.214;12.270;2022-11-13T07:55:48;21.30;33.40
49184;DHT22;35021;49.214;12.270;2022-11-13T07:58:15;21.30;33.60
49184;DHT22;35021;49.214;12.270;2022-11-13T08:00:42;21.30;33.70
49184;DHT22;35021;49.214;12.270;2022-11-13T08:03:15;21.20;33.70
49184;DHT22;35021;49.214;12.270;2022-11-13T08:05:42;21.30;33.70
49184;DHT22;35021;49.214;12.270;2022-11-13T08:08:13;21.30;33.80
49184;DHT22;35021;49.214;12.270;2022-11-13T08:10:41;21.30;33.90
49184;DHT22;35021;49.214;12.270;2022-11-13T08:13:09;21.40;34.00
49184;DHT22;35021;49.214;12.270;2022-11-13T08:15:36;21.40;34.10
49184;DHT22;35021;49.214;12.270;2022-11-13T08:18:03;21.40;34.00
49184;DHT22;35021;49.214;12.270;2022-11-13T08:20:31;21.40;34.00
49184;DHT22;35021;49.214;12.270;2022-11-13T08:23:00;21.50;34.10
49184;DHT22;35021;49.214;12.270;2022-11-13T08:25:28;21.50;34.10
49184;DHT22;35021;49.214;12.270;2022-11-13T08:27:55;21.50;34.20
49184;DHT22;35021;49.214;12.270;2022-11-13T08:30:23;21.50;34.30
49184;DHT22;35021;49.214;12.270;2022-11-13T08:32:50;21.60;34.30
49184;DHT22;35021;49.214;12.270;2022-11-13T08:35:17;21.60;34.40
49184;DHT22;35021;49.214;12.270;2022-11-13T08:37:46;21.60;34.40
49184;DHT22;35021;49.214;12.270;2022-11-13T08:40:13;21.50;34.40
49184;DHT22;35021;49.214;12.270;2022-11-13T08:42:40;21.50;34.50
49184;DHT22;35021;49.214;12.270;2022-11-13T08:45:08;21.50;34.80
49184;DHT22;35021;49.214;12.270;2022-11-13T08:47:35;21.40;34.80
49184;DHT22;35021;49.214;12.270;2022-11-13T08:50:04;21.40;35.00
49184;DHT22;35021;49.214;12.270;2022-11-13T08:52:31;21.40;35.10
49184;DHT22;35021;49.214;12.270;2022-11-13T08:54:58;21.40;35.10
49184;DHT22;35021;49.214;12.270;2022-11-13T08:57:24;21.40;35.30
49184;DHT22;35021;49.214;12.270;2022-11-13T08:59:51;21.40;35.30
49184;DHT22;35021;49.214;12.270;2022-11-13T09:02:18;21.50;35.40
49184;DHT22;35021;49.214;12.270;2022-11-13T09:04:45;21.50;35.30
49184;DHT22;35021;49.214;12.270;2022-11-13T09:07:12;21.60;35.40
49184;DHT22;35021;49.214;12.270;2022-11-13T09:09:39;21.60;35.50
49184;DHT22;35021;49.214;12.270;2022-11-13T09:12:06;21.70;35.60
49184;DHT22;35021;49.214;12.270;2022-11-13T09:14:33;21.70;35.60
49184;DHT22;35021;49.214;12.270;2022-11-13T09:16:59;21.70;35.70
49184;DHT22;35021;49.214;12.270;2022-11-13T09:19:26;21.70;35.80
49184;DHT22;35021;49.214;12.270;2022-11-13T09:21:54;21.60;35.80
49184;DHT22;35021;49.214;12.270;2022-11-13T09:24:20;21.60;36.10
49184;DHT22;35021;49.214;12.270;2022-11-13T09:26:47;21.60;36.30
49184;DHT22;35021;49.214;12.270;2022-11-13T09:29:14;21.50;36.40
49184;DHT22;35021;49.214;12.270;2022-11-13T09:31:43;21.50;36.60
49184;DHT22;35021;49.214;12.270;2022-11-13T09:34:10;21.50;36.70
49184;DHT22;35021;49.214;12.270;2022-11-13T09:36:37;21.50;36.80
49184;DHT22;35021;49.214;12.270;2022-11-13T09:39:04;21.50;36.80
49184;DHT22;35021;49.214;12.270;2022-11-13T09:41:36;21.50;36.80
49184;DHT22;35021;49.214;12.270;2022-11-13T09:44:05;21.50;37.50
49184;DHT22;35021;49.214;12.270;2022-11-13T09:46:56;21.50;36.90
49184;DHT22;35021;49.214;12.270;2022-11-13T09:49:37;21.50;36.90
49184;DHT22;35021;49.214;12.270;2022-11-13T09:52:26;21.50;36.90
49184;DHT22;35021;49.214;12.270;2022-11-13T09:54:55;21.40;37.00
49184;DHT22;35021;49.214;12.270;2022-11-13T10:00:19;21.30;37.10
49184;DHT22;35021;49.214;12.270;2022-11-13T10:06:03;21.30;37.30
49184;DHT22;35021;49.214;12.270;2022-11-13T10:08:49;21.30;37.30
49184;DHT22;35021;49.214;12.270;2022-11-13T10:14:24;21.30;37.20
49184;DHT22;35021;49.214;12.270;2022-11-13T10:17:08;21.40;37.10
49184;DHT22;35021;49.214;12.270;2022-11-13T10:19:57;21.50;37.10
49184;DHT22;35021;49.214;12.270;2022-11-13T10:22:39;21.50;37.00
49184;DHT22;35021;49.214;12.270;2022-11-13T10:25:18;21.60;37.00
49184;DHT22;35021;49.214;12.270;2022-11-13T10:27:57;21.60;37.70
49184;DHT22;35021;49.214;12.270;2022-11-13T10:30:24;21.70;37.70
49184;DHT22;35021;49.214;12.270;2022-11-13T10:32:52;21.70;36.90
49184;DHT22;35021;49.214;12.270;2022-11-13T10:40:51;21.90;36.70
49184;DHT22;35021;49.214;12.270;2022-11-13T10:43:23;21.90;36.60
49184;DHT22;35021;49.214;12.270;2022-11-13T10:46:21;22.00;36.60
49184;DHT22;35021;49.214;12.270;2022-11-13T10:48:49;22.00;36.50
49184;DHT22;35021;49.214;12.270;2022-11-13T10:53:50;22.10;36.30
49184;DHT22;35021;49.214;12.270;2022-11-13T10:56:37;22.10;36.30
49184;DHT22;35021;49.214;12.270;2022-11-13T10:59:17;22.20;36.30
49184;DHT22;35021;49.214;12.270;2022-11-13T11:01:46;22.20;36.20
49184;DHT22;35021;49.214;12.270;2022-11-13T11:04:24;22.30;36.20
49184;DHT22;35021;49.214;12.270;2022-11-13T11:06:54;22.30;35.90
49184;DHT22;35021;49.214;12.270;2022-11-13T11:09:41;22.30;35.90
49184;DHT22;35021;49.214;12.270;2022-11-13T11:12:13;22.40;35.80
49184;DHT22;35021;49.214;12.270;2022-11-13T11:17:20;22.40;35.70
49184;DHT22;35021;49.214;12.270;2022-11-13T11:19:55;22.40;35.70
49184;DHT22;35021;49.214;12.270;2022-11-13T11:22:27;22.50;35.80
49184;DHT22;35021;49.214;12.270;2022-11-13T11:27:47;22.60;35.90
49184;DHT22;35021;49.214;12.270;2022-11-13T11:30:22;22.60;35.80
49184;DHT22;35021;49.214;12.270;2022-11-13T11:33:22;22.70;35.90
49184;DHT22;35021;49.214;12.270;2022-11-13T11:36:01;22.80;35.90
49184;DHT22;35021;49.214;12.270;2022-11-13T11:41:14;22.90;35.80
49184;DHT22;35021;49.214;12.270;2022-11-13T11:44:04;22.90;35.80
49184;DHT22;35021;49.214;12.270;2022-11-13T11:46:31;22.90;35.70
49184;DHT22;35021;49.214;12.270;2022-11-13T11:48:59;23.00;35.80
49184;DHT22;35021;49.214;12.270;2022-11-13T11:54:27;22.90;35.70
49184;DHT22;35021;49.214;12.270;2022-11-13T11:57:28;22.90;36.40
49184;DHT22;35021;49.214;12.270;2022-11-13T12:00:07;22.90;35.80
49184;DHT22;35021;49.214;12.270;2022-11-13T12:05:33;22.70;35.80
49184;DHT22;35021;49.214;12.270;2022-11-13T12:08:27;22.70;35.90
49184;DHT22;35021;49.214;12.270;2022-11-13T12:11:05;22.60;36.00
49184;DHT22;35021;49.214;12.270;2022-11-13T12:13:46;22.50;36.10
49184;DHT22;35021;49.214;12.270;2022-11-13T12:19:02;22.40;36.30
49184;DHT22;35021;49.214;12.270;2022-11-13T12:21:41;22.40;36.40
49184;DHT22;35021;49.214;12.270;2022-11-13T12:35:24;22.10;36.60
49184;DHT22;35021;49.214;12.270;2022-11-13T12:38:00;22.00;36.80
49184;DHT22;35021;49.214;12.270;2022-11-13T12:40:44;21.90;36.90
49184;DHT22;35021;49.214;12.270;2022-11-13T12:46:06;21.90;36.90
49184;DHT22;35021;49.214;12.270;2022-11-13T12:48:38;21.90;37.10
49184;DHT22;35021;49.214;12.270;2022-11-13T12:51:12;21.90;37.00
49184;DHT22;35021;49.214;12.270;2022-11-13T12:53:45;22.00;37.00
49184;DHT22;35021;49.214;12.270;2022-11-13T12:59:01;22.10;36.70
49184;DHT22;35021;49.214;12.270;2022-11-13T13:04:47;22.20;36.50
49184;DHT22;35021;49.214;12.270;2022-11-13T13:12:59;22.40;36.20
49184;DHT22;35021;49.214;12.270;2022-11-13T13:18:22;22.50;36.10
49184;DHT22;35021;49.214;12.270;2022-11-13T13:23:30;22.50;36.00
49184;DHT22;35021;49.214;12.270;2022-11-13T13:26:13;22.40;35.90
49184;DHT22;35021;49.214;12.270;2022-11-13T13:28:52;22.40;35.90
49184;DHT22;35021;49.214;12.270;2022-11-13T13:31:48;22.40;36.00
49184;DHT22;35021;49.214;12.270;2022-11-13T13:47:52;22.30;36.00
49184;DHT22;35021;49.214;12.270;2022-11-13T13:50:28;22.20;36.00
49184;DHT22;35021;49.214;12.270;2022-11-13T13:52:57;22.20;36.10
49184;DHT22;35021;49.214;12.270;2022-11-13T13:55:32;22.20;36.10
49184;DHT22;35021;49.214;12.270;2022-11-13T13:58:06;22.20;36.10
49184;DHT22;35021;49.214;12.270;2022-11-13T14:00:34;22.20;36.10
49184;DHT22;35021;49.214;12.270;2022-11-13T14:03:20;22.20;36.10
49184;DHT22;35021;49.214;12.270;2022-11-13T14:05:47;22.10;36.10
49184;DHT22;35021;49.214;12.270;2022-11-13T14:08:20;22.10;36.90
49184;DHT22;35021;49.214;12.270;2022-11-13T14:10:47;22.10;36.20
49184;DHT22;35021;49.214;12.270;2022-11-13T14:13:26;22.10;36.30
49184;DHT22;35021;49.214;12.270;2022-11-13T14:16:04;22.10;36.30
49184;DHT22;35021;49.214;12.270;2022-11-13T14:18:32;22.20;36.30
49184;DHT22;35021;49.214;12.270;2022-11-13T14:21:02;22.10;36.20
49184;DHT22;35021;49.214;12.270;2022-11-13T14:23:34;22.20;36.20
49184;DHT22;35021;49.214;12.270;2022-11-13T14:26:03;22.20;36.20
49184;DHT22;35021;49.214;12.270;2022-11-13T14:28:33;22.30;36.20
49184;DHT22;35021;49.214;12.270;2022-11-13T14:31:10;22.30;36.10
49184;DHT22;35021;49.214;12.270;2022-11-13T14:33:43;22.40;36.00
49184;DHT22;35021;49.214;12.270;2022-11-13T14:36:14;22.40;35.90
49184;DHT22;35021;49.214;12.270;2022-11-13T14:38:45;22.50;35.80
49184;DHT22;35021;49.214;12.270;2022-11-13T14:43:58;22.60;35.60
49184;DHT22;35021;49.214;12.270;2022-11-13T14:46:38;22.70;35.50
49184;DHT22;35021;49.214;12.270;2022-11-13T14:49:26;22.80;35.40
49184;DHT22;35021;49.214;12.270;2022-11-13T14:51:55;22.90;35.30
49184;DHT22;35021;49.214;12.270;2022-11-13T14:54:29;22.90;35.20
49184;DHT22;35021;49.214;12.270;2022-11-13T14:57:17;22.90;35.10
49184;DHT22;35021;49.214;12.270;2022-11-13T14:59:47;23.00;35.00
49184;DHT22;35021;49.214;12.270;2022-11-13T15:02:14;23.10;35.00
49184;DHT22;35021;49.214;12.270;2022-11-13T15:04:41;23.10;34.90
49184;DHT22;35021;49.214;12.270;2022-11-13T15:07:27;23.10;34.80
49184;DHT22;35021;49.214;12.270;2022-11-13T15:09:55;23.10;34.80
49184;DHT22;35021;49.214;12.270;2022-11-13T15:12:23;23.10;34.80
49184;DHT22;35021;49.214;12.270;2022-11-13T15:14:50;23.10;34.90
49184;DHT22;35021;49.214;12.270;2022-11-13T15:17:19;23.00;34.90
49184;DHT22;35021;49.214;12.270;2022-11-13T15:19:50;23.00;34.90
49184;DHT22;35021;49.214;12.270;2022-11-13T15:22:17;23.00;34.90
49184;DHT22;35021;49.214;12.270;2022-11-13T15:24:54;22.90;34.90
49184;DHT22;35021;49.214;12.270;2022-11-13T15:27:21;22.90;34.90
49184;DHT22;35021;49.214;12.270;2022-11-13T15:29:48;22.80;34.90
49184;DHT22;35021;49.214;12.270;2022-11-13T15:32:16;22.80;35.00
49184;DHT22;35021;49.214;12.270;2022-11-13T15:34:43;22.80;35.00
49184;DHT22;35021;49.214;12.270;2022-11-13T15:37:12;22.70;35.00
49184;DHT22;35021;49.214;12.270;2022-11-13T15:39:39;22.70;35.10
49184;DHT22;35021;49.214;12.270;2022-11-13T15:42:15;22.70;35.20
49184;DHT22;35021;49.214;12.270;2022-11-13T15:44:44;22.70;35.30
49184;DHT22;35021;49.214;12.270;2022-11-13T15:47:26;22.60;35.30
49184;DHT22;35021;49.214;12.270;2022-11-13T15:50:02;22.60;35.40
49184;DHT22;35021;49.214;12.270;2022-11-13T15:52:49;22.50;35.40
49184;DHT22;35021;49.214;12.270;2022-11-13T15:55:27;22.50;35.40
49184;DHT22;35021;49.214;12.270;2022-11-13T15:57:56;22.50;35.30
49184;DHT22;35021;49.214;12.270;2022-11-13T16:00:25;22.50;35.20
49184;DHT22;35021;49.214;12.270;2022-11-13T16:02:54;22.50;35.10
49184;DHT22;35021;49.214;12.270;2022-11-13T16:05:24;22.60;35.30
49184;DHT22;35021;49.214;12.270;2022-11-13T16:07:52;22.70;35.00
49184;DHT22;35021;49.214;12.270;2022-11-13T16:10:20;22.70;34.90
49184;DHT22;35021;49.214;12.270;2022-11-13T16:12:48;22.80;34.80
49184;DHT22;35021;49.214;12.270;2022-11-13T16:15:16;22.80;34.70
49184;DHT22;35021;49.214;12.270;2022-11-13T16:17:46;22.80;34.60
49184;DHT22;35021;49.214;12.270;2022-11-13T16:20:16;22.90;34.60
49184;DHT22;35021;49.214;12.270;2022-11-13T16:22:43;22.90;34.50
49184;DHT22;35021;49.214;12.270;2022-11-13T16:25:16;22.90;34.40
49184;DHT22;35021;49.214;12.270;2022-11-13T16:27:44;23.00;34.40
49184;DHT22;35021;49.214;12.270;2022-11-13T16:30:17;23.10;34.40
49184;DHT22;35021;49.214;12.270;2022-11-13T16:32:49;23.00;34.30
49184;DHT22;35021;49.214;12.270;2022-11-13T16:35:17;23.10;34.30
49184;DHT22;35021;49.214;12.270;2022-11-13T16:37:44;23.00;34.20
49184;DHT22;35021;49.214;12.270;2022-11-13T16:40:23;23.00;34.20
49184;DHT22;35021;49.214;12.270;2022-11-13T16:42:52;23.00;34.30
49184;DHT22;35021;49.214;12.270;2022-11-13T16:45:20;23.00;34.20
49184;DHT22;35021;49.214;12.270;2022-11-13T16:47:48;23.10;34.20
49184;DHT22;35021;49.214;12.270;2022-11-13T16:50:18;23.10;34.10
49184;DHT22;35021;49.214;12.270;2022-11-13T16:52:46;23.10;33.90
49184;DHT22;35021;49.214;12.270;2022-11-13T16:55:12;23.10;33.80
49184;DHT22;35021;49.214;12.270;2022-11-13T16:57:39;23.10;33.80
49184;DHT22;35021;49.214;12.270;2022-11-13T17:00:09;23.10;33.80